Jericho, Vermont
Current Conditions -  °F | °C
As of 7:54 PM on Sunday 23 Nov 2014 (Local Time) from KBTV Reporting Station
Overcast Overcast  
Wind Chill: 51°   Ceiling: 6000
Heat Index: 51°   Visibility: 10mi
Dew Point: 38°   Wind: 12mph
Humidity: 61%   Direction: 180°S
Pressure: 30.02"   Gusts: NA
Location:  44.5°N, 73°W
Report Text: KBTV 240054Z 18010KT 10SM OVC060 11/03 A3002 RMK AO2 SLP169 T01060033
Loading
Personal Weather Stations






























Interactive Weather Map New forecast layout! Learn more

10-Day Weather Forecast

Advertisements
Track Severe Weather on mobile